sensor_id;sensor_type;location;lat;lon;timestamp;pressure;altitude;pressure_sealevel;temperature;humidity
9189;BME280;34313;50.780;6.084;2023-05-11T00:00:36;99347.69;;;11.36;100.00
9189;BME280;34313;50.780;6.084;2023-05-11T00:03:02;99345.97;;;11.35;100.00
9189;BME280;34313;50.780;6.084;2023-05-11T00:05:27;99352.19;;;11.34;100.00
9189;BME280;34313;50.780;6.084;2023-05-11T00:07:52;99354.34;;;11.42;100.00
9189;BME280;34313;50.780;6.084;2023-05-11T00:10:18;99351.81;;;11.40;100.00
9189;BME280;34313;50.780;6.084;2023-05-11T00:12:43;99348.31;;;11.40;100.00
9189;BME280;34313;50.780;6.084;2023-05-11T00:15:09;99352.09;;;11.35;100.00
9189;BME280;34313;50.780;6.084;2023-05-11T00:17:34;99341.19;;;11.27;100.00
9189;BME280;34313;50.780;6.084;2023-05-11T00:20:00;99341.47;;;11.23;100.00
9189;BME280;34313;50.780;6.084;2023-05-11T00:22:25;99351.38;;;11.19;100.00
9189;BME280;34313;50.780;6.084;2023-05-11T00:24:50;99346.09;;;11.19;100.00
9189;BME280;34313;50.780;6.084;2023-05-11T00:27:16;99346.56;;;11.11;100.00
9189;BME280;34313;50.780;6.084;2023-05-11T00:29:41;99342.34;;;11.09;100.00
9189;BME280;34313;50.780;6.084;2023-05-11T00:32:06;99341.59;;;11.07;100.00
9189;BME280;34313;50.780;6.084;2023-05-11T00:34:32;99347.06;;;11.04;100.00
9189;BME280;34313;50.780;6.084;2023-05-11T00:36:57;99349.59;;;11.05;100.00
9189;BME280;34313;50.780;6.084;2023-05-11T00:39:22;99345.25;;;11.04;100.00
9189;BME280;34313;50.780;6.084;2023-05-11T00:41:47;99349.59;;;11.05;100.00
9189;BME280;34313;50.780;6.084;2023-05-11T00:44:13;99344.97;;;11.09;100.00
9189;BME280;34313;50.780;6.084;2023-05-11T00:46:38;99345.53;;;11.14;100.00
9189;BME280;34313;50.780;6.084;2023-05-11T00:49:03;99345.63;;;11.12;100.00
9189;BME280;34313;50.780;6.084;2023-05-11T00:51:30;99342.72;;;11.17;100.00
9189;BME280;34313;50.780;6.084;2023-05-11T00:53:57;99345.03;;;11.22;100.00
9189;BME280;34313;50.780;6.084;2023-05-11T00:56:23;99338.94;;;11.21;100.00
9189;BME280;34313;50.780;6.084;2023-05-11T00:58:48;99343.28;;;11.22;100.00
9189;BME280;34313;50.780;6.084;2023-05-11T01:01:13;99343.19;;;11.24;100.00
9189;BME280;34313;50.780;6.084;2023-05-11T01:03:42;99347.78;;;11.20;100.00
9189;BME280;34313;50.780;6.084;2023-05-11T01:06:28;99348.66;;;11.21;100.00
9189;BME280;34313;50.780;6.084;2023-05-11T01:09:02;99350.53;;;11.19;100.00
9189;BME280;34313;50.780;6.084;2023-05-11T01:11:42;99351.38;;;11.19;100.00
9189;BME280;34313;50.780;6.084;2023-05-11T01:14:26;99361.94;;;11.19;100.00
9189;BME280;34313;50.780;6.084;2023-05-11T01:17:02;99358.63;;;11.15;100.00
9189;BME280;34313;50.780;6.084;2023-05-11T01:19:42;99356.94;;;11.14;100.00
9189;BME280;34313;50.780;6.084;2023-05-11T01:22:22;99363.16;;;11.13;100.00
9189;BME280;34313;50.780;6.084;2023-05-11T01:25:17;99355.63;;;11.07;100.00
9189;BME280;34313;50.780;6.084;2023-05-11T01:27:56;99358.56;;;11.03;100.00
9189;BME280;34313;50.780;6.084;2023-05-11T01:30:56;99357.78;;;11.01;100.00
9189;BME280;34313;50.780;6.084;2023-05-11T01:33:30;99357.13;;;10.97;100.00
9189;BME280;34313;50.780;6.084;2023-05-11T01:36:01;99353.09;;;10.91;100.00
9189;BME280;34313;50.780;6.084;2023-05-11T01:38:31;99351.97;;;10.81;100.00
9189;BME280;34313;50.780;6.084;2023-05-11T01:40:59;99353.28;;;10.74;100.00
9189;BME280;34313;50.780;6.084;2023-05-11T01:43:26;99355.44;;;10.67;100.00
9189;BME280;34313;50.780;6.084;2023-05-11T01:45:58;99361.19;;;10.59;100.00
9189;BME280;34313;50.780;6.084;2023-05-11T01:48:29;99366.16;;;10.50;100.00
9189;BME280;34313;50.780;6.084;2023-05-11T01:50:59;99362.28;;;10.41;100.00
9189;BME280;34313;50.780;6.084;2023-05-11T01:53:28;99362.03;;;10.46;100.00
9189;BME280;34313;50.780;6.084;2023-05-11T01:55:57;99356.19;;;10.40;100.00
9189;BME280;34313;50.780;6.084;2023-05-11T01:58:24;99363.69;;;10.32;100.00
9189;BME280;34313;50.780;6.084;2023-05-11T02:00:51;99361.50;;;10.25;100.00
9189;BME280;34313;50.780;6.084;2023-05-11T02:03:18;99371.53;;;10.18;100.00
9189;BME280;34313;50.780;6.084;2023-05-11T02:05:46;99362.97;;;10.14;100.00
9189;BME280;34313;50.780;6.084;2023-05-11T02:08:13;99363.91;;;10.13;100.00
9189;BME280;34313;50.780;6.084;2023-05-11T02:10:40;99368.50;;;10.10;100.00
9189;BME280;34313;50.780;6.084;2023-05-11T02:13:07;99365.56;;;10.00;100.00
9189;BME280;34313;50.780;6.084;2023-05-11T02:15:36;99369.88;;;10.01;100.00
9189;BME280;34313;50.780;6.084;2023-05-11T02:18:05;99374.59;;;9.96;100.00
9189;BME280;34313;50.780;6.084;2023-05-11T02:20:31;99371.16;;;9.94;100.00
9189;BME280;34313;50.780;6.084;2023-05-11T02:22:57;99374.91;;;9.90;100.00
9189;BME280;34313;50.780;6.084;2023-05-11T02:25:24;99369.66;;;9.90;100.00
9189;BME280;34313;50.780;6.084;2023-05-11T02:27:50;99371.00;;;9.97;100.00
9189;BME280;34313;50.780;6.084;2023-05-11T02:30:15;99371.84;;;9.97;100.00
9189;BME280;34313;50.780;6.084;2023-05-11T02:32:46;99363.75;;;10.00;100.00
9189;BME280;34313;50.780;6.084;2023-05-11T02:35:16;99367.81;;;10.06;100.00
9189;BME280;34313;50.780;6.084;2023-05-11T02:37:45;99368.59;;;10.08;100.00
9189;BME280;34313;50.780;6.084;2023-05-11T02:40:24;99364.25;;;10.07;100.00
9189;BME280;34313;50.780;6.084;2023-05-11T02:42:56;99364.19;;;10.09;100.00
9189;BME280;34313;50.780;6.084;2023-05-11T02:45:24;99355.78;;;10.02;100.00
9189;BME280;34313;50.780;6.084;2023-05-11T02:47:53;99356.91;;;9.98;100.00
9189;BME280;34313;50.780;6.084;2023-05-11T02:50:21;99354.34;;;9.96;100.00
9189;BME280;34313;50.780;6.084;2023-05-11T02:52:50;99351.97;;;9.92;100.00
9189;BME280;34313;50.780;6.084;2023-05-11T02:55:17;99357.34;;;9.90;100.00
9189;BME280;34313;50.780;6.084;2023-05-11T02:57:44;99354.44;;;9.95;100.00
9189;BME280;34313;50.780;6.084;2023-05-11T03:00:11;99361.88;;;10.02;100.00
9189;BME280;34313;50.780;6.084;2023-05-11T03:02:37;99355.22;;;10.11;100.00
9189;BME280;34313;50.780;6.084;2023-05-11T03:05:02;99357.06;;;10.25;100.00
9189;BME280;34313;50.780;6.084;2023-05-11T03:07:30;99349.59;;;10.33;100.00
9189;BME280;34313;50.780;6.084;2023-05-11T03:09:55;99361.19;;;10.45;100.00
9189;BME280;34313;50.780;6.084;2023-05-11T03:12:21;99346.63;;;10.54;100.00
9189;BME280;34313;50.780;6.084;2023-05-11T03:14:47;99350.38;;;10.64;100.00
9189;BME280;34313;50.780;6.084;2023-05-11T03:17:14;99347.19;;;10.73;100.00
9189;BME280;34313;50.780;6.084;2023-05-11T03:19:41;99340.69;;;10.79;100.00
9189;BME280;34313;50.780;6.084;2023-05-11T03:22:08;99342.81;;;10.87;100.00
9189;BME280;34313;50.780;6.084;2023-05-11T03:24:34;99339.63;;;10.96;100.00
9189;BME280;34313;50.780;6.084;2023-05-11T03:27:00;99342.53;;;11.06;100.00
9189;BME280;34313;50.780;6.084;2023-05-11T03:29:28;99344.31;;;11.05;100.00
9189;BME280;34313;50.780;6.084;2023-05-11T03:31:54;99346.69;;;11.10;100.00
9189;BME280;34313;50.780;6.084;2023-05-11T03:34:19;99345.72;;;11.11;100.00
9189;BME280;34313;50.780;6.084;2023-05-11T03:36:47;99349.09;;;11.13;100.00
9189;BME280;34313;50.780;6.084;2023-05-11T03:39:14;99342.81;;;11.15;100.00
9189;BME280;34313;50.780;6.084;2023-05-11T03:41:41;99343.56;;;11.18;100.00
9189;BME280;34313;50.780;6.084;2023-05-11T03:44:09;99343.38;;;11.21;100.00
9189;BME280;34313;50.780;6.084;2023-05-11T03:46:37;99331.09;;;11.20;100.00
9189;BME280;34313;50.780;6.084;2023-05-11T03:49:04;99333.84;;;11.18;100.00
9189;BME280;34313;50.780;6.084;2023-05-11T03:51:31;99335.91;;;11.13;100.00
9189;BME280;34313;50.780;6.084;2023-05-11T03:53:58;99337.06;;;11.09;100.00
9189;BME280;34313;50.780;6.084;2023-05-11T03:56:23;99336.56;;;11.16;100.00
9189;BME280;34313;50.780;6.084;2023-05-11T03:58:49;99339.22;;;11.16;100.00
9189;BME280;34313;50.780;6.084;2023-05-11T04:01:14;99338.38;;;11.16;100.00
9189;BME280;34313;50.780;6.084;2023-05-11T04:03:50;99339.97;;;11.19;100.00
9189;BME280;34313;50.780;6.084;2023-05-11T04:06:17;99339.03;;;11.20;100.00
9189;BME280;34313;50.780;6.084;2023-05-11T04:08:42;99340.72;;;11.21;100.00
9189;BME280;34313;50.780;6.084;2023-05-11T04:11:08;99347.78;;;11.20;100.00
9189;BME280;34313;50.780;6.084;2023-05-11T04:13:33;99336.47;;;11.18;100.00
9189;BME280;34313;50.780;6.084;2023-05-11T04:15:58;99348.91;;;11.16;100.00
9189;BME280;34313;50.780;6.084;2023-05-11T04:18:24;99348.00;;;11.17;100.00
9189;BME280;34313;50.780;6.084;2023-05-11T04:20:49;99346.66;;;11.24;100.00
9189;BME280;34313;50.780;6.084;2023-05-11T04:23:14;99350.03;;;11.26;100.00
9189;BME280;34313;50.780;6.084;2023-05-11T04:25:40;99348.16;;;11.28;100.00
9189;BME280;34313;50.780;6.084;2023-05-11T04:28:05;99354.91;;;11.32;100.00
9189;BME280;34313;50.780;6.084;2023-05-11T04:30:30;99344.25;;;11.34;100.00
9189;BME280;34313;50.780;6.084;2023-05-11T04:32:55;99355.94;;;11.44;100.00
9189;BME280;34313;50.780;6.084;2023-05-11T04:35:21;99342.81;;;11.43;100.00
9189;BME280;34313;50.780;6.084;2023-05-11T04:37:46;99352.03;;;11.50;100.00
9189;BME280;34313;50.780;6.084;2023-05-11T04:40:11;99353.34;;;11.57;100.00
9189;BME280;34313;50.780;6.084;2023-05-11T04:42:37;99356.31;;;11.65;100.00
9189;BME280;34313;50.780;6.084;2023-05-11T04:45:02;99353.94;;;11.75;100.00
9189;BME280;34313;50.780;6.084;2023-05-11T04:47:28;99354.31;;;11.83;100.00
9189;BME280;34313;50.780;6.084;2023-05-11T04:49:53;99367.09;;;11.89;100.00
9189;BME280;34313;50.780;6.084;2023-05-11T04:52:18;99367.84;;;11.91;100.00
9189;BME280;34313;50.780;6.084;2023-05-11T04:54:44;99366.50;;;11.99;100.00
9189;BME280;34313;50.780;6.084;2023-05-11T04:57:09;99361.03;;;12.02;100.00
9189;BME280;34313;50.780;6.084;2023-05-11T04:59:34;99374.13;;;12.03;100.00
9189;BME280;34313;50.780;6.084;2023-05-11T05:02:00;99370.31;;;12.07;100.00
9189;BME280;34313;50.780;6.084;2023-05-11T05:04:25;99368.31;;;12.11;100.00
9189;BME280;34313;50.780;6.084;2023-05-11T05:06:50;99376.06;;;12.14;100.00
9189;BME280;34313;50.780;6.084;2023-05-11T05:09:16;99379.44;;;12.16;100.00
9189;BME280;34313;50.780;6.084;2023-05-11T05:11:41;99383.25;;;12.25;100.00
9189;BME280;34313;50.780;6.084;2023-05-11T05:14:06;99382.13;;;12.42;100.00
9189;BME280;34313;50.780;6.084;2023-05-11T05:16:31;99373.56;;;12.51;100.00
9189;BME280;34313;50.780;6.084;2023-05-11T05:18:57;99380.22;;;12.57;100.00
9189;BME280;34313;50.780;6.084;2023-05-11T05:21:23;99388.47;;;12.65;100.00
9189;BME280;34313;50.780;6.084;2023-05-11T05:23:48;99389.22;;;12.67;100.00
9189;BME280;34313;50.780;6.084;2023-05-11T05:26:13;99395.25;;;12.69;100.00
9189;BME280;34313;50.780;6.084;2023-05-11T05:28:39;99395.03;;;12.72;100.00
9189;BME280;34313;50.780;6.084;2023-05-11T05:31:05;99392.19;;;12.75;100.00
9189;BME280;34313;50.780;6.084;2023-05-11T05:33:30;99391.13;;;12.78;100.00
9189;BME280;34313;50.780;6.084;2023-05-11T05:35:55;99400.03;;;12.77;100.00
9189;BME280;34313;50.780;6.084;2023-05-11T05:38:21;99398.41;;;12.74;100.00
9189;BME280;34313;50.780;6.084;2023-05-11T05:40:46;99401.94;;;12.75;100.00
9189;BME280;34313;50.780;6.084;2023-05-11T05:43:11;99404.47;;;12.76;100.00
9189;BME280;34313;50.780;6.084;2023-05-11T05:45:37;99416.94;;;12.74;100.00
9189;BME280;34313;50.780;6.084;2023-05-11T05:48:02;99416.31;;;12.83;100.00
9189;BME280;34313;50.780;6.084;2023-05-11T05:50:30;99421.81;;;12.93;100.00
9189;BME280;34313;50.780;6.084;2023-05-11T05:52:55;99421.59;;;12.96;100.00
9189;BME280;34313;50.780;6.084;2023-05-11T05:55:20;99415.88;;;13.02;100.00
9189;BME280;34313;50.780;6.084;2023-05-11T05:57:46;99424.03;;;13.12;100.00
9189;BME280;34313;50.780;6.084;2023-05-11T06:00:12;99425.38;;;13.18;100.00
9189;BME280;34313;50.780;6.084;2023-05-11T06:02:37;99425.31;;;13.07;100.00
9189;BME280;34313;50.780;6.084;2023-05-11T06:05:03;99427.41;;;13.14;100.00
9189;BME280;34313;50.780;6.084;2023-05-11T06:07:28;99422.97;;;13.15;100.00
9189;BME280;34313;50.780;6.084;2023-05-11T06:09:54;99417.69;;;13.15;100.00
9189;BME280;34313;50.780;6.084;2023-05-11T06:12:20;99428.25;;;13.28;100.00
9189;BME280;34313;50.780;6.084;2023-05-11T06:14:45;99432.56;;;13.29;100.00
9189;BME280;34313;50.780;6.084;2023-05-11T06:17:11;99434.25;;;13.30;100.00
9189;BME280;34313;50.780;6.084;2023-05-11T06:19:36;99434.81;;;13.09;100.00
9189;BME280;34313;50.780;6.084;2023-05-11T06:22:02;99442.84;;;13.08;100.00
9189;BME280;34313;50.780;6.084;2023-05-11T06:24:27;99434.72;;;13.11;100.00
9189;BME280;34313;50.780;6.084;2023-05-11T06:26:53;99426.25;;;13.18;100.00
9189;BME280;34313;50.780;6.084;2023-05-11T06:29:19;99435.66;;;13.22;100.00
9189;BME280;34313;50.780;6.084;2023-05-11T06:31:46;99428.13;;;13.16;100.00
9189;BME280;34313;50.780;6.084;2023-05-11T06:34:16;99440.41;;;13.17;100.00
9189;BME280;34313;50.780;6.084;2023-05-11T06:36:43;99430.25;;;13.11;100.00
9189;BME280;34313;50.780;6.084;2023-05-11T06:39:08;99427.09;;;13.19;100.00
9189;BME280;34313;50.780;6.084;2023-05-11T06:41:33;99430.78;;;13.29;100.00
9189;BME280;34313;50.780;6.084;2023-05-11T06:43:59;99428.53;;;13.49;100.00
9189;BME280;34313;50.780;6.084;2023-05-11T06:46:24;99426.66;;;13.75;100.00
9189;BME280;34313;50.780;6.084;2023-05-11T06:48:50;99437.38;;;13.97;99.74
9189;BME280;34313;50.780;6.084;2023-05-11T06:51:15;99437.03;;;14.02;99.15
9189;BME280;34313;50.780;6.084;2023-05-11T06:53:41;99430.56;;;14.06;98.30
9189;BME280;34313;50.780;6.084;2023-05-11T06:56:06;99435.50;;;14.11;96.86
9189;BME280;34313;50.780;6.084;2023-05-11T06:58:32;99435.09;;;14.28;97.41
9189;BME280;34313;50.780;6.084;2023-05-11T07:00:57;99447.91;;;14.34;96.54
9189;BME280;34313;50.780;6.084;2023-05-11T07:03:23;99439.59;;;14.39;95.81
9189;BME280;34313;50.780;6.084;2023-05-11T07:05:48;99441.53;;;14.37;95.68
9189;BME280;34313;50.780;6.084;2023-05-11T07:08:13;99444.03;;;14.27;96.05
9189;BME280;34313;50.780;6.084;2023-05-11T07:10:39;99441.69;;;14.47;97.87
9189;BME280;34313;50.780;6.084;2023-05-11T07:13:05;99442.97;;;14.65;96.37
9189;BME280;34313;50.780;6.084;2023-05-11T07:15:31;99443.38;;;14.83;94.42
9189;BME280;34313;50.780;6.084;2023-05-11T07:17:56;99450.75;;;15.02;93.30
9189;BME280;34313;50.780;6.084;2023-05-11T07:20:22;99444.47;;;15.15;92.24
9189;BME280;34313;50.780;6.084;2023-05-11T07:22:47;99441.00;;;15.25;91.69
9189;BME280;34313;50.780;6.084;2023-05-11T07:25:12;99446.28;;;15.37;90.68
9189;BME280;34313;50.780;6.084;2023-05-11T07:27:37;99441.94;;;15.47;89.78
9189;BME280;34313;50.780;6.084;2023-05-11T07:30:03;99441.09;;;15.58;89.03
9189;BME280;34313;50.780;6.084;2023-05-11T07:32:29;99440.59;;;15.53;88.06
9189;BME280;34313;50.780;6.084;2023-05-11T07:34:54;99440.09;;;15.70;88.04
9189;BME280;34313;50.780;6.084;2023-05-11T07:37:19;99444.09;;;15.76;87.35
9189;BME280;34313;50.780;6.084;2023-05-11T07:39:44;99441.22;;;15.67;87.78
9189;BME280;34313;50.780;6.084;2023-05-11T07:42:10;99453.41;;;15.81;88.07
9189;BME280;34313;50.780;6.084;2023-05-11T07:44:35;99455.06;;;15.94;87.31
9189;BME280;34313;50.780;6.084;2023-05-11T07:47:00;99440.13;;;16.14;84.73
9189;BME280;34313;50.780;6.084;2023-05-11T07:49:26;99450.00;;;16.23;83.46
9189;BME280;34313;50.780;6.084;2023-05-11T07:51:51;99451.94;;;16.21;83.82
9189;BME280;34313;50.780;6.084;2023-05-11T07:54:17;99455.19;;;16.24;84.10
9189;BME280;34313;50.780;6.084;2023-05-11T07:56:42;99452.72;;;16.65;82.11
9189;BME280;34313;50.780;6.084;2023-05-11T07:59:07;99454.28;;;16.68;81.57
9189;BME280;34313;50.780;6.084;2023-05-11T08:01:33;99443.44;;;16.59;80.92
9189;BME280;34313;50.780;6.084;2023-05-11T08:03:58;99451.56;;;17.00;79.31
9189;BME280;34313;50.780;6.084;2023-05-11T08:06:24;99453.56;;;17.38;78.92
9189;BME280;34313;50.780;6.084;2023-05-11T08:08:49;99450.31;;;17.75;76.99
9189;BME280;34313;50.780;6.084;2023-05-11T08:11:15;99448.88;;;18.02;75.34
9189;BME280;34313;50.780;6.084;2023-05-11T08:13:40;99442.97;;;18.08;73.95
9189;BME280;34313;50.780;6.084;2023-05-11T08:16:05;99449.25;;;18.07;73.12
9189;BME280;34313;50.780;6.084;2023-05-11T08:18:31;99445.38;;;18.31;71.73
9189;BME280;34313;50.780;6.084;2023-05-11T08:20:56;99446.06;;;18.62;69.09
9189;BME280;34313;50.780;6.084;2023-05-11T08:23:21;99456.19;;;19.25;66.38
9189;BME280;34313;50.780;6.084;2023-05-11T08:25:53;99444.97;;;19.77;63.86
9189;BME280;34313;50.780;6.084;2023-05-11T08:28:19;99454.97;;;20.39;61.83
9189;BME280;34313;50.780;6.084;2023-05-11T08:30:45;99451.53;;;20.29;60.09
9189;BME280;34313;50.780;6.084;2023-05-11T08:33:11;99462.69;;;19.51;62.29
9189;BME280;34313;50.780;6.084;2023-05-11T08:35:38;99459.19;;;19.13;63.29
9189;BME280;34313;50.780;6.084;2023-05-11T08:38:03;99452.47;;;19.36;63.02
9189;BME280;34313;50.780;6.084;2023-05-11T08:40:29;99469.22;;;19.66;62.58
9189;BME280;34313;50.780;6.084;2023-05-11T08:42:55;99462.13;;;19.85;61.20
9189;BME280;34313;50.780;6.084;2023-05-11T08:45:21;99464.97;;;19.73;60.71
9189;BME280;34313;50.780;6.084;2023-05-11T08:47:47;99457.63;;;20.21;59.82
9189;BME280;34313;50.780;6.084;2023-05-11T08:50:13;99463.22;;;20.28;58.34
9189;BME280;34313;50.780;6.084;2023-05-11T08:52:39;99463.00;;;20.03;58.49
9189;BME280;34313;50.780;6.084;2023-05-11T08:55:06;99463.38;;;20.26;58.47
9189;BME280;34313;50.780;6.084;2023-05-11T08:57:33;99468.03;;;20.60;58.13
9189;BME280;34313;50.780;6.084;2023-05-11T09:00:00;99472.69;;;20.58;57.27
9189;BME280;34313;50.780;6.084;2023-05-11T09:02:27;99475.22;;;20.59;56.47
9189;BME280;34313;50.780;6.084;2023-05-11T09:04:53;99481.53;;;20.94;56.48
9189;BME280;34313;50.780;6.084;2023-05-11T09:07:19;99469.28;;;20.66;56.33
9189;BME280;34313;50.780;6.084;2023-05-11T09:09:46;99474.69;;;20.56;56.96
9189;BME280;34313;50.780;6.084;2023-05-11T09:12:12;99467.94;;;19.98;57.14
9189;BME280;34313;50.780;6.084;2023-05-11T09:14:38;99471.03;;;20.21;56.96
9189;BME280;34313;50.780;6.084;2023-05-11T09:17:03;99470.34;;;20.19;55.93
9189;BME280;34313;50.780;6.084;2023-05-11T09:19:29;99468.53;;;20.37;55.06
9189;BME280;34313;50.780;6.084;2023-05-11T09:21:55;99468.47;;;20.91;53.95
9189;BME280;34313;50.780;6.084;2023-05-11T09:24:20;99471.56;;;20.25;55.62
9189;BME280;34313;50.780;6.084;2023-05-11T09:26:47;99472.09;;;20.28;56.51
9189;BME280;34313;50.780;6.084;2023-05-11T09:29:12;99466.59;;;20.30;56.69
9189;BME280;34313;50.780;6.084;2023-05-11T09:31:43;99464.63;;;20.68;55.91
9189;BME280;34313;50.780;6.084;2023-05-11T09:34:17;99460.91;;;20.87;53.98
9189;BME280;34313;50.780;6.084;2023-05-11T09:36:44;99466.41;;;20.85;54.57
9189;BME280;34313;50.780;6.084;2023-05-11T09:39:10;99461.38;;;20.82;54.45
9189;BME280;34313;50.780;6.084;2023-05-11T09:41:36;99459.19;;;21.04;54.00
9189;BME280;34313;50.780;6.084;2023-05-11T09:44:10;99462.16;;;21.27;54.30
9189;BME280;34313;50.780;6.084;2023-05-11T09:46:40;99459.56;;;21.43;52.81
9189;BME280;34313;50.780;6.084;2023-05-11T09:49:10;99462.91;;;20.85;54.34
9189;BME280;34313;50.780;6.084;2023-05-11T09:51:37;99461.63;;;20.71;54.36
9189;BME280;34313;50.780;6.084;2023-05-11T09:54:22;99465.53;;;20.76;54.58
9189;BME280;34313;50.780;6.084;2023-05-11T09:56:53;99453.72;;;19.79;56.58
9189;BME280;34313;50.780;6.084;2023-05-11T09:59:40;99455.38;;;20.62;55.18
9189;BME280;34313;50.780;6.084;2023-05-11T10:02:22;99458.97;;;21.23;53.70
9189;BME280;34313;50.780;6.084;2023-05-11T10:04:49;99454.63;;;21.57;53.02
9189;BME280;34313;50.780;6.084;2023-05-11T10:07:32;99462.91;;;21.45;52.49
9189;BME280;34313;50.780;6.084;2023-05-11T10:09:59;99455.63;;;21.56;52.38
9189;BME280;34313;50.780;6.084;2023-05-11T10:12:26;99458.44;;;21.46;52.61
9189;BME280;34313;50.780;6.084;2023-05-11T10:15:00;99458.53;;;21.10;52.67
9189;BME280;34313;50.780;6.084;2023-05-11T10:17:27;99449.88;;;20.90;52.83
9189;BME280;34313;50.780;6.084;2023-05-11T10:19:54;99457.03;;;20.45;53.92
9189;BME280;34313;50.780;6.084;2023-05-11T10:22:21;99451.22;;;20.50;54.39
9189;BME280;34313;50.780;6.084;2023-05-11T10:24:48;99449.16;;;20.62;54.22
9189;BME280;34313;50.780;6.084;2023-05-11T10:27:14;99446.16;;;20.65;54.27
9189;BME280;34313;50.780;6.084;2023-05-11T10:29:41;99444.56;;;20.54;54.46
9189;BME280;34313;50.780;6.084;2023-05-11T10:32:06;99441.88;;;20.98;54.02
9189;BME280;34313;50.780;6.084;2023-05-11T10:34:32;99449.09;;;20.98;53.63
9189;BME280;34313;50.780;6.084;2023-05-11T10:36:59;99445.03;;;21.20;53.39
9189;BME280;34313;50.780;6.084;2023-05-11T10:39:25;99441.63;;;21.09;53.30
9189;BME280;34313;50.780;6.084;2023-05-11T10:45:04;99449.22;;;21.22;52.83
9189;BME280;34313;50.780;6.084;2023-05-11T10:50:35;99450.94;;;20.97;52.32
9189;BME280;34313;50.780;6.084;2023-05-11T11:01:36;99450.16;;;21.74;50.55
9189;BME280;34313;50.780;6.084;2023-05-11T11:04:03;99443.31;;;21.87;51.21
9189;BME280;34313;50.780;6.084;2023-05-11T11:06:33;99442.66;;;21.94;50.80
9189;BME280;34313;50.780;6.084;2023-05-11T11:09:07;99447.31;;;21.75;50.66
9189;BME280;34313;50.780;6.084;2023-05-11T11:11:46;99446.94;;;21.62;51.06
9189;BME280;34313;50.780;6.084;2023-05-11T11:14:13;99441.06;;;21.66;50.94
9189;BME280;34313;50.780;6.084;2023-05-11T11:16:40;99444.44;;;21.34;51.52
9189;BME280;34313;50.780;6.084;2023-05-11T11:19:34;99446.00;;;21.45;50.99
9189;BME280;34313;50.780;6.084;2023-05-11T11:22:00;99443.91;;;21.30;50.47
9189;BME280;34313;50.780;6.084;2023-05-11T11:27:04;99452.59;;;20.36;54.28
9189;BME280;34313;50.780;6.084;2023-05-11T11:29:30;99451.38;;;20.12;55.41
9189;BME280;34313;50.780;6.084;2023-05-11T11:34:43;99451.28;;;19.58;57.43
9189;BME280;34313;50.780;6.084;2023-05-11T11:37:09;99451.69;;;19.54;58.02
9189;BME280;34313;50.780;6.084;2023-05-11T11:42:13;99449.16;;;19.24;58.00
9189;BME280;34313;50.780;6.084;2023-05-11T11:44:40;99440.78;;;19.65;57.32
9189;BME280;34313;50.780;6.084;2023-05-11T11:47:13;99438.53;;;19.98;56.50
9189;BME280;34313;50.780;6.084;2023-05-11T11:49:40;99438.41;;;20.35;56.04
9189;BME280;34313;50.780;6.084;2023-05-11T11:52:13;99435.47;;;20.47;54.47
9189;BME280;34313;50.780;6.084;2023-05-11T11:54:45;99430.25;;;21.07;53.16
9189;BME280;34313;50.780;6.084;2023-05-11T12:00:01;99427.03;;;21.73;51.32
9189;BME280;34313;50.780;6.084;2023-05-11T12:02:30;99437.50;;;22.08;50.22
9189;BME280;34313;50.780;6.084;2023-05-11T12:04:56;99434.69;;;22.35;48.46
9189;BME280;34313;50.780;6.084;2023-05-11T12:07:23;99436.66;;;22.24;48.92
9189;BME280;34313;50.780;6.084;2023-05-11T12:09:49;99437.38;;;21.59;49.86
9189;BME280;34313;50.780;6.084;2023-05-11T12:12:17;99433.03;;;21.66;51.38
9189;BME280;34313;50.780;6.084;2023-05-11T12:14:43;99434.34;;;21.28;51.40
9189;BME280;34313;50.780;6.084;2023-05-11T12:17:13;99424.34;;;20.77;52.33
9189;BME280;34313;50.780;6.084;2023-05-11T12:19:41;99424.00;;;20.18;54.06
9189;BME280;34313;50.780;6.084;2023-05-11T12:22:07;99423.34;;;20.16;54.75
9189;BME280;34313;50.780;6.084;2023-05-11T12:24:37;99422.16;;;20.19;55.05
9189;BME280;34313;50.780;6.084;2023-05-11T12:27:03;99429.34;;;20.36;54.98
9189;BME280;34313;50.780;6.084;2023-05-11T12:29:29;99419.66;;;20.35;54.65
9189;BME280;34313;50.780;6.084;2023-05-11T12:31:54;99422.16;;;20.55;53.71
9189;BME280;34313;50.780;6.084;2023-05-11T12:34:21;99417.00;;;20.80;52.15
9189;BME280;34313;50.780;6.084;2023-05-11T12:36:48;99415.59;;;21.28;51.08
9189;BME280;34313;50.780;6.084;2023-05-11T12:39:19;99414.78;;;21.36;51.11
9189;BME280;34313;50.780;6.084;2023-05-11T12:41:46;99419.66;;;21.40;51.04
9189;BME280;34313;50.780;6.084;2023-05-11T12:44:14;99413.09;;;21.69;51.05
9189;BME280;34313;50.780;6.084;2023-05-11T12:46:39;99411.97;;;21.37;51.29
9189;BME280;34313;50.780;6.084;2023-05-11T12:49:05;99406.59;;;21.37;50.94
9189;BME280;34313;50.780;6.084;2023-05-11T12:52:04;99413.31;;;21.92;50.70
9189;BME280;34313;50.780;6.084;2023-05-11T12:54:37;99409.28;;;21.96;50.29
9189;BME280;34313;50.780;6.084;2023-05-11T12:57:04;99402.97;;;22.22;49.88
9189;BME280;34313;50.780;6.084;2023-05-11T12:59:37;99403.31;;;22.27;49.49
9189;BME280;34313;50.780;6.084;2023-05-11T13:02:05;99407.19;;;22.33;48.97
9189;BME280;34313;50.780;6.084;2023-05-11T13:04:31;99404.00;;;22.29;49.07
9189;BME280;34313;50.780;6.084;2023-05-11T13:06:56;99406.13;;;22.17;49.25
9189;BME280;34313;50.780;6.084;2023-05-11T13:09:26;99403.78;;;22.14;49.07
9189;BME280;34313;50.780;6.084;2023-05-11T13:12:08;99403.25;;;20.74;51.89
9189;BME280;34313;50.780;6.084;2023-05-11T13:14:34;99403.41;;;20.73;52.79
9189;BME280;34313;50.780;6.084;2023-05-11T13:16:59;99399.16;;;20.96;52.58
9189;BME280;34313;50.780;6.084;2023-05-11T13:19:26;99388.94;;;21.26;51.61
9189;BME280;34313;50.780;6.084;2023-05-11T13:21:56;99397.66;;;21.55;51.64
9189;BME280;34313;50.780;6.084;2023-05-11T13:24:22;99397.81;;;21.61;51.30
9189;BME280;34313;50.780;6.084;2023-05-11T13:26:48;99395.28;;;21.60;50.14
9189;BME280;34313;50.780;6.084;2023-05-11T13:29:15;99388.47;;;21.31;49.88
9189;BME280;34313;50.780;6.084;2023-05-11T13:31:51;99394.50;;;21.33;49.99